createdAt,value
2018-06-17T00:02:02.677Z,81.7
2018-06-17T00:07:02.494Z,82.7
2018-06-17T00:12:02.503Z,81.7
2018-06-17T00:17:02.508Z,81
2018-06-17T00:22:02.707Z,80.8
2018-06-17T00:27:02.634Z,81.6
2018-06-17T00:32:02.756Z,81.9
2018-06-17T00:37:14.723Z,82.2
2018-06-17T00:42:14.591Z,82.2
2018-06-17T00:47:14.671Z,83.4
2018-06-17T00:52:14.454Z,84.6
2018-06-17T00:57:14.440Z,84.2
2018-06-17T01:02:14.639Z,84.1
2018-06-17T01:07:14.666Z,84.1
2018-06-17T01:12:15.712Z,83.6
2018-06-17T01:17:15.454Z,83.4
2018-06-17T01:22:26.694Z,82.9
2018-06-17T01:27:26.434Z,83.2
2018-06-17T01:32:26.612Z,83.4
2018-06-17T01:37:26.651Z,81.8
2018-06-17T01:42:26.586Z,82
2018-06-17T01:47:26.437Z,81.6
2018-06-17T01:52:26.448Z,82.5
2018-06-17T01:57:26.448Z,82.2
2018-06-17T02:02:26.479Z,82.2
2018-06-17T02:07:38.050Z,82.6
2018-06-17T02:12:37.935Z,82.2
2018-06-17T02:17:37.952Z,81.5
2018-06-17T02:22:38.069Z,83.1
2018-06-17T02:27:37.921Z,83.6
2018-06-17T02:32:37.969Z,84.6
2018-06-17T02:37:38.015Z,83
2018-06-17T02:42:40.426Z,82.9
2018-06-17T02:47:40.354Z,82.9
2018-06-17T02:52:51.728Z,82.7
2018-06-17T02:57:51.666Z,84.1
2018-06-17T03:02:51.603Z,84.3
2018-06-17T03:07:51.456Z,84.6
2018-06-17T03:12:51.579Z,82.5
2018-06-17T03:17:51.590Z,82.7
2018-06-17T03:22:51.476Z,82.9
2018-06-17T03:27:53.216Z,83.2
2018-06-17T03:32:52.930Z,82.5
2018-06-17T03:38:05.328Z,82.5
2018-06-17T03:43:05.057Z,82.4
2018-06-17T03:48:05.056Z,83.7
2018-06-17T03:53:05.058Z,82.7
2018-06-17T03:58:05.071Z,82.9
2018-06-17T04:03:05.028Z,83.3
2018-06-17T04:08:05.264Z,83.2
2018-06-17T04:13:05.065Z,82.8
2018-06-17T04:18:05.208Z,82.4
2018-06-17T04:23:16.700Z,81.8
2018-06-17T04:28:16.639Z,82
2018-06-17T04:33:16.576Z,81.9
2018-06-17T04:38:16.438Z,82.5
2018-06-17T04:43:16.651Z,81.8
2018-06-17T04:48:21.821Z,81.9
2018-06-17T04:53:21.864Z,81.7
2018-06-17T04:58:21.828Z,80.3
2018-06-17T05:03:22.014Z,80.2
2018-06-17T05:08:33.559Z,80.8
2018-06-17T05:13:33.451Z,79.6
2018-06-17T05:18:33.485Z,79.9
2018-06-17T05:23:33.274Z,78.7
2018-06-17T05:28:33.290Z,79
2018-06-17T05:33:33.406Z,78
2018-06-17T05:38:33.287Z,78.7
2018-06-17T05:43:33.763Z,77.4
2018-06-17T05:48:33.510Z,76.4
2018-06-17T05:53:46.382Z,77.5
2018-06-17T05:58:46.237Z,75.8
2018-06-17T06:03:46.193Z,77.7
2018-06-17T06:08:46.075Z,77.9
2018-06-17T06:13:46.115Z,77.4
2018-06-17T06:18:46.190Z,74.8
2018-06-17T06:23:46.139Z,75.4
2018-06-17T06:28:46.044Z,73.2
2018-06-17T06:33:46.204Z,73.3
2018-06-17T06:38:46.220Z,74.6
2018-06-17T06:43:46.139Z,73.6
2018-06-17T06:48:46.121Z,72
2018-06-17T06:53:46.319Z,70
2018-06-17T06:58:46.225Z,70.3
2018-06-17T07:04:00.338Z,70
2018-06-17T07:09:00.034Z,69.5
2018-06-17T07:14:00.063Z,68.3
2018-06-17T07:19:00.064Z,63.8
2018-06-17T07:24:00.072Z,61.8
2018-06-17T07:29:00.073Z,59.5
2018-06-17T07:34:00.056Z,59.6
2018-06-17T07:39:00.160Z,58.6
2018-06-17T07:44:00.228Z,59.8
2018-06-17T07:49:12.830Z,59.3
2018-06-17T07:54:12.525Z,57.2
2018-06-17T07:59:12.558Z,58.4
2018-06-17T08:04:12.520Z,53.9
2018-06-17T08:09:12.635Z,52.2
2018-06-17T08:14:12.557Z,50.7
2018-06-17T08:19:12.695Z,49.7
2018-06-17T08:24:13.652Z,51.5
2018-06-17T08:29:13.372Z,51.6
2018-06-17T08:34:26.095Z,52.1
2018-06-17T08:39:25.860Z,49.6
2018-06-17T08:44:25.976Z,51.1
2018-06-17T08:49:25.869Z,48.5
2018-06-17T08:54:25.840Z,45.2
2018-06-17T08:59:25.833Z,47.7
2018-06-17T09:04:25.845Z,43.5
2018-06-17T09:09:27.412Z,44.7
2018-06-17T09:14:27.361Z,44.2
2018-06-17T09:19:39.359Z,44.4
2018-06-17T09:24:39.310Z,46.3
2018-06-17T09:29:39.580Z,44.7
2018-06-17T09:34:39.112Z,42.8
2018-06-17T09:39:39.100Z,41
2018-06-17T09:44:39.078Z,39.3
2018-06-17T09:49:39.104Z,38.2
2018-06-17T09:54:43.028Z,38.2
2018-06-17T09:59:42.723Z,39.4
2018-06-17T10:04:54.940Z,38.8
2018-06-17T10:09:54.608Z,41.5
2018-06-17T10:14:54.657Z,37.5
2018-06-17T10:19:54.668Z,37.5
2018-06-17T10:24:55.047Z,37.4
2018-06-17T10:29:55.006Z,39.2
2018-06-17T10:34:54.870Z,39.8
2018-06-17T10:40:00.653Z,40.6
2018-06-17T10:44:56.128Z,40.8
2018-06-17T10:50:08.422Z,43.9
2018-06-17T10:55:08.157Z,38.8
2018-06-17T11:00:08.302Z,41.4
2018-06-17T11:05:08.202Z,41.1
2018-06-17T11:10:08.291Z,39.9
2018-06-17T11:15:08.176Z,40
2018-06-17T11:20:08.194Z,37.9
2018-06-17T11:25:08.818Z,37.9
2018-06-17T11:30:09.032Z,38.1
2018-06-17T11:35:20.740Z,37
2018-06-17T11:40:20.648Z,36.6
2018-06-17T11:45:20.626Z,37.6
2018-06-17T11:50:20.422Z,40
2018-06-17T11:55:20.476Z,39.5
2018-06-17T12:00:20.487Z,41.5
2018-06-17T12:05:20.436Z,40.9
2018-06-17T12:10:23.581Z,41.6
2018-06-17T12:15:23.435Z,41.6
2018-06-17T12:20:36.030Z,42.5
2018-06-17T12:25:35.804Z,41.2
2018-06-17T12:30:35.810Z,39.7
2018-06-17T12:35:35.878Z,39.6
2018-06-17T12:40:35.916Z,41.5
2018-06-17T12:45:35.814Z,39.6
2018-06-17T12:50:36.124Z,39.3
2018-06-17T12:55:35.676Z,39.5
2018-06-17T13:00:35.690Z,39.9
2018-06-17T13:05:48.548Z,40.8
2018-06-17T13:10:48.268Z,40.5
2018-06-17T13:15:48.264Z,39.9
2018-06-17T13:20:48.305Z,38.6
2018-06-17T13:25:48.264Z,40.2
2018-06-17T13:30:48.409Z,40.6
2018-06-17T13:35:48.468Z,41.2
2018-06-17T13:40:51.506Z,39.5
2018-06-17T13:45:51.404Z,40.2
2018-06-17T13:51:03.399Z,40.9
2018-06-17T13:56:03.458Z,41.2
2018-06-17T14:01:03.271Z,42.9
2018-06-17T14:06:03.148Z,42
2018-06-17T14:11:03.137Z,41.5
2018-06-17T14:16:03.374Z,42.7
2018-06-17T14:21:03.133Z,41.3
2018-06-17T14:26:05.566Z,40.8
2018-06-17T14:31:05.284Z,41.9
2018-06-17T14:36:17.271Z,41.1
2018-06-17T14:41:17.170Z,37.8
2018-06-17T14:46:16.990Z,35.8
2018-06-17T14:51:17.130Z,38
2018-06-17T14:56:17.159Z,36.8
2018-06-17T15:01:17.213Z,35.6
2018-06-17T15:06:17.236Z,36.2
2018-06-17T15:11:17.568Z,37.6
2018-06-17T15:16:17.394Z,38.2
2018-06-17T15:21:29.860Z,38.1
2018-06-17T15:26:29.767Z,38.2
2018-06-17T15:31:29.713Z,37.1
2018-06-17T15:36:29.769Z,37.8
2018-06-17T15:41:29.616Z,38.3
2018-06-17T15:46:29.549Z,36.5
2018-06-17T15:51:29.730Z,38.7
2018-06-17T15:56:30.429Z,39.4
2018-06-17T16:01:30.421Z,37.8
2018-06-17T16:06:42.903Z,37.1
2018-06-17T16:11:42.743Z,37.1
2018-06-17T16:16:42.601Z,37.4
2018-06-17T16:21:42.653Z,37.4
2018-06-17T16:26:42.658Z,35.2
2018-06-17T16:31:42.638Z,35.7
2018-06-17T16:36:42.642Z,34.4
2018-06-17T16:41:43.041Z,35.3
2018-06-17T16:46:43.829Z,34.7
2018-06-17T16:51:55.582Z,35.3
2018-06-17T16:56:55.075Z,35.8
2018-06-17T17:01:55.245Z,37.2
2018-06-17T17:06:55.154Z,38.9
2018-06-17T17:11:55.147Z,40.2
2018-06-17T17:16:55.216Z,42.3
2018-06-17T17:21:55.130Z,43.1
2018-06-17T17:26:55.898Z,44.2
2018-06-17T17:31:55.812Z,44
2018-06-17T17:37:08.133Z,44.7
2018-06-17T17:42:08.099Z,44.4
2018-06-17T17:47:07.857Z,44.6
2018-06-17T17:52:08.019Z,45.8
2018-06-17T17:57:07.870Z,49.2
2018-06-17T18:02:07.869Z,51.7
2018-06-17T18:07:07.873Z,52.1
2018-06-17T18:12:07.874Z,54.8
2018-06-17T18:17:07.865Z,55.2
2018-06-17T18:22:19.413Z,55.1
2018-06-17T18:27:19.091Z,56.2
2018-06-17T18:32:19.366Z,56.4
2018-06-17T18:37:19.088Z,57.7
2018-06-17T18:42:19.159Z,59.9
2018-06-17T18:47:19.150Z,59.8
2018-06-17T18:52:19.157Z,61.1
2018-06-17T18:57:21.386Z,63.7
2018-06-17T19:02:21.307Z,66.5
2018-06-17T19:07:33.236Z,69.6
2018-06-17T19:12:32.949Z,69
2018-06-17T19:17:35.904Z,69.5
2018-06-17T19:22:34.132Z,70.4
2018-06-17T19:27:32.935Z,72.5
2018-06-17T19:32:32.930Z,72.9
2018-06-17T19:37:33.025Z,72.8
2018-06-17T19:42:33.241Z,73.8
2018-06-17T19:47:32.809Z,74.9
2018-06-17T19:52:33.008Z,74.5
2018-06-17T19:57:33.315Z,72.7
2018-06-17T20:02:32.979Z,73.1
2018-06-17T20:07:35.521Z,73
2018-06-17T20:12:35.527Z,73.5
2018-06-17T20:17:45.759Z,74.9
2018-06-17T20:22:45.781Z,72.6
2018-06-17T20:27:45.636Z,76
2018-06-17T20:32:45.680Z,75.3
2018-06-17T20:37:45.595Z,75.1
2018-06-17T20:42:45.514Z,75.3
2018-06-17T20:47:45.476Z,75.2
2018-06-17T20:52:45.792Z,75.4
2018-06-17T20:57:45.597Z,75.4
2018-06-17T21:02:59.263Z,75.4
2018-06-17T21:07:59.135Z,74
2018-06-17T21:12:58.995Z,74.2
2018-06-17T21:17:59.184Z,74.8
2018-06-17T21:22:59.254Z,75.6
2018-06-17T21:27:59.155Z,75.6
2018-06-17T21:32:59.017Z,75.3
2018-06-17T21:37:59.017Z,74.7
2018-06-17T21:42:59.019Z,75.2
2018-06-17T21:48:10.921Z,74.1
2018-06-17T21:53:17.812Z,73.6
2018-06-17T21:58:10.800Z,71.9
2018-06-17T22:03:10.791Z,71.4
2018-06-17T22:08:10.656Z,70.8
2018-06-17T22:13:10.793Z,71.1
2018-06-17T22:18:10.655Z,70.5
2018-06-17T22:23:10.839Z,71.1
2018-06-17T22:28:10.856Z,70.8
2018-06-17T22:33:23.112Z,73
2018-06-17T22:38:22.959Z,72.6
2018-06-17T22:43:23.015Z,72
2018-06-17T22:48:23.073Z,72.1
2018-06-17T22:53:22.849Z,72.8
2018-06-17T22:58:22.994Z,73.1
2018-06-17T23:03:23.039Z,73.3
2018-06-17T23:08:23.206Z,74.2
2018-06-17T23:13:23.078Z,73.3
2018-06-17T23:18:35.258Z,73.3
2018-06-17T23:23:35.100Z,74
2018-06-17T23:28:34.978Z,73.4
2018-06-17T23:33:35.120Z,74.1
2018-06-17T23:38:34.980Z,73
2018-06-17T23:43:35.199Z,73.1
2018-06-17T23:48:35.247Z,74
2018-06-17T23:53:35.002Z,73.2
2018-06-17T23:58:35.011Z,74.2
